EDHI/XFW METAR and TAF weather

Enter ICAO airport designator
Station Type Date Time Source
EDHI METAR 2019/04/19 22:50 UTC NOAA

EDHI 192250Z AUTO 07006KT 9999 // NCD 11/02 Q1033


Station Type Date Time Source
EDHI Decoded METAR 2019/04/19 22:50 UTC NOAA

Hamburg-Finkenwerder, Germany (EDHI) 53-32N 009-50E 13M
Apr 19, 2019 - 06:50 PM EDT / 2019.04.19 2250 UTC
Wind: from the ENE (070 degrees) at 7 MPH (6 KT):0
Visibility: greater than 7 mile(s):0
Temperature: 51 F (11 C)
Dew Point: 35 F (2 C)
Relative Humidity: 53%
Pressure (altimeter): 30.50 in. Hg (1033 hPa)
ob: EDHI 192250Z AUTO 07006KT 9999 // NCD 11/02 Q1033
cycle: 23

Station Type Date Time Source
EDHI TAF 2010/02/22 14:20 UTC NOAA

METAR EDHI 221420Z 17005KT 9999 BKN030 05/02 Q0989

Example: see airport list